Aérodrome :
LOGIN :

S'inscrire | Disclaimer

   EN    FR    IT 

 










Légende :    VFR   VFR Marginal   IFR   IFR Intensif   IFR Très Intensif
Visi : 
Plafond : 
>= 8 km
>= 3000ft
5 à 8 km
1000 à 3000 ft
1500m à 5 km
500 à 1000 ft
800 à 1500m
200 à 500 ft
< 800m
< 200 ft
Symboles :   Orages  Brouillard  Fortes neiges  Fortes précipitations  Vent > 20 kt
SIGMETs :   Divers  Orages  Givrage  Turbulence  Onde Orograph.  Cendres Volcan.







- Altitude de l'aérodrome : 788 ft
- Code IATA : DCM
- Voir les cartes d'approche


LFCK - Castres-Mazamet

DERNIER METAR :
  • 202230Z AUTO 29005KT 9999 BKN026 OVC037 18/16 Q1018

METARs EXPIRÉS :
  • 202200Z AUTO 28004KT 9999 -DZ FEW031 BKN037 OVC052 19/16 Q1018
  • 202130Z AUTO 30007KT 9999 -RADZ BKN031/// OVC039/// ///TCU 19/16 Q1018
  • 202100Z AUTO 28005KT 9999 -RADZ BKN036/// OVC046/// ///TCU 19/16 Q1018 BECMG BKN035
  • 202030Z AUTO 31005KT 9999 BKN034/// OVC046/// ///TCU 19/16 Q1017 BECMG BKN035
  • 202000Z AUTO 30007KT 9999 OVC029/// ///CB 20/16 Q1017 TEMPO VRB15G30KT 4000 -TSRA BKN013 BKN020CB

TAF TAF LFCK
Valide du 20 à 18h jusqu'au 21 à 03h UTC


201700Z 2018/2103 32006KT 9999 BKN035
TEMPO 2018/2022 SCT025TCU
PROB30
TEMPO 2018/2021 VRB15G30KT 4000 -TSRA BKN013 BKN020CB
BECMG 2101/2103 BKN013
Pas de NOTAMs connus pour ce terrain.
1 SIGMET publié pour la FIR Bordeaux (LFBB) :
 
Orages noyés dans la masse
LFBB SIGMET 6 VALID 202300/210300 LFPW
LFBB BORDEAUX FIR/UIR EMBD TS FCST WI N4230 E00045 - N4245 W00045 - N4300 W00030 - N4245 E00100 - N4230 E00045 TOP FL310 MOV NE 10KT WKN=



MET'MAP, la Météo Aéronautique d'un coup d'oeil ! - Copyright ORBIFLY Décembre 2007 - Disclaimer

ORBIFLY MET'MAP TEAM :

Programmation & Développement : Alexandra Zaïnal
Conception & Développement : Baudouin d'Aumeries
Co-Programmation & Développement : Marc-Olivier Méhu
Soutien technique & logistique : Manuel Goepfert

Contact : metmap@orbifly.com




SOURCES & CREDITS :

   NOAA